sensor_id;sensor_type;location;lat;lon;timestamp;temperature;humidity
41694;DHT22;27377;50.666;9.150;2023-11-19T01:58:58;7.20;99.90
41694;DHT22;27377;50.666;9.150;2023-11-19T02:50:13;7.30;99.90
41694;DHT22;27377;50.666;9.150;2023-11-19T03:08:29;7.40;99.90
41694;DHT22;27377;50.666;9.150;2023-11-19T03:11:14;7.40;99.90
41694;DHT22;27377;50.666;9.150;2023-11-19T03:13:49;7.50;99.90
41694;DHT22;27377;50.666;9.150;2023-11-19T03:21:41;7.50;99.90
41694;DHT22;27377;50.666;9.150;2023-11-19T03:24:24;7.50;99.90
41694;DHT22;27377;50.666;9.150;2023-11-19T03:27:02;7.50;99.90
41694;DHT22;27377;50.666;9.150;2023-11-19T03:30:11;7.50;99.90
41694;DHT22;27377;50.666;9.150;2023-11-19T03:32:38;7.50;99.90
41694;DHT22;27377;50.666;9.150;2023-11-19T03:35:14;7.50;99.90
41694;DHT22;27377;50.666;9.150;2023-11-19T03:38:03;7.60;99.90
41694;DHT22;27377;50.666;9.150;2023-11-19T03:40:33;7.60;99.90
41694;DHT22;27377;50.666;9.150;2023-11-19T03:45:53;7.60;99.90
41694;DHT22;27377;50.666;9.150;2023-11-19T03:48:23;7.60;99.90
41694;DHT22;27377;50.666;9.150;2023-11-19T03:50:57;7.60;99.90
41694;DHT22;27377;50.666;9.150;2023-11-19T03:53:47;7.70;99.90
41694;DHT22;27377;50.666;9.150;2023-11-19T03:57:06;7.70;99.90
41694;DHT22;27377;50.666;9.150;2023-11-19T04:00:09;7.70;99.90
41694;DHT22;27377;50.666;9.150;2023-11-19T04:02:45;7.70;99.90
41694;DHT22;27377;50.666;9.150;2023-11-19T04:05:18;7.70;99.90
41694;DHT22;27377;50.666;9.150;2023-11-19T04:26:25;7.80;99.90
41694;DHT22;27377;50.666;9.150;2023-11-19T04:28:54;7.80;99.90
41694;DHT22;27377;50.666;9.150;2023-11-19T04:31:37;7.80;99.90
41694;DHT22;27377;50.666;9.150;2023-11-19T04:34:07;7.80;99.90
41694;DHT22;27377;50.666;9.150;2023-11-19T04:39:26;7.80;99.90
41694;DHT22;27377;50.666;9.150;2023-11-19T04:41:56;7.80;99.90
41694;DHT22;27377;50.666;9.150;2023-11-19T04:44:32;7.80;99.90
41694;DHT22;27377;50.666;9.150;2023-11-19T04:47:06;7.80;99.90
41694;DHT22;27377;50.666;9.150;2023-11-19T04:57:29;7.90;99.90
41694;DHT22;27377;50.666;9.150;2023-11-19T05:18:06;8.10;99.90
41694;DHT22;27377;50.666;9.150;2023-11-19T05:20:41;8.10;99.90
41694;DHT22;27377;50.666;9.150;2023-11-19T05:23:26;8.10;99.90
41694;DHT22;27377;50.666;9.150;2023-11-19T05:36:40;8.10;99.90
41694;DHT22;27377;50.666;9.150;2023-11-19T05:52:18;8.20;99.90
41694;DHT22;27377;50.666;9.150;2023-11-19T06:40:17;8.50;99.90
41694;DHT22;27377;50.666;9.150;2023-11-19T06:42:44;8.50;99.90
41694;DHT22;27377;50.666;9.150;2023-11-19T06:45:11;8.50;99.90
41694;DHT22;27377;50.666;9.150;2023-11-19T06:47:36;8.50;99.90
41694;DHT22;27377;50.666;9.150;2023-11-19T06:55:17;8.50;99.90
41694;DHT22;27377;50.666;9.150;2023-11-19T06:57:43;8.50;99.90
41694;DHT22;27377;50.666;9.150;2023-11-19T07:00:10;8.50;99.90
41694;DHT22;27377;50.666;9.150;2023-11-19T07:02:40;8.50;99.90
41694;DHT22;27377;50.666;9.150;2023-11-19T07:05:09;8.60;99.90
41694;DHT22;27377;50.666;9.150;2023-11-19T07:07:37;8.60;99.90
41694;DHT22;27377;50.666;9.150;2023-11-19T07:10:04;8.60;99.90
41694;DHT22;27377;50.666;9.150;2023-11-19T07:12:33;8.60;99.90
41694;DHT22;27377;50.666;9.150;2023-11-19T07:15:06;8.60;99.90
41694;DHT22;27377;50.666;9.150;2023-11-19T07:23:03;8.60;99.90
41694;DHT22;27377;50.666;9.150;2023-11-19T07:25:38;8.60;99.90
41694;DHT22;27377;50.666;9.150;2023-11-19T07:28:11;8.60;99.90
41694;DHT22;27377;50.666;9.150;2023-11-19T07:30:40;8.70;99.90
41694;DHT22;27377;50.666;9.150;2023-11-19T07:33:11;8.70;99.90
41694;DHT22;27377;50.666;9.150;2023-11-19T07:35:40;8.70;99.90
41694;DHT22;27377;50.666;9.150;2023-11-19T07:38:08;8.70;99.90
41694;DHT22;27377;50.666;9.150;2023-11-19T07:40:58;8.70;99.90
41694;DHT22;27377;50.666;9.150;2023-11-19T07:43:29;8.70;99.90
41694;DHT22;27377;50.666;9.150;2023-11-19T07:46:18;8.70;99.90
41694;DHT22;27377;50.666;9.150;2023-11-19T07:52:25;8.80;99.90
41694;DHT22;27377;50.666;9.150;2023-11-19T07:54:52;8.70;99.90
41694;DHT22;27377;50.666;9.150;2023-11-19T08:01:43;8.80;99.90
41694;DHT22;27377;50.666;9.150;2023-11-19T08:04:14;8.80;99.90
41694;DHT22;27377;50.666;9.150;2023-11-19T08:06:50;8.80;99.90
41694;DHT22;27377;50.666;9.150;2023-11-19T09:18:34;9.20;99.90
41694;DHT22;27377;50.666;9.150;2023-11-19T09:31:41;9.30;99.90
41694;DHT22;27377;50.666;9.150;2023-11-19T09:34:13;9.30;99.90
41694;DHT22;27377;50.666;9.150;2023-11-19T09:37:00;9.30;99.90
41694;DHT22;27377;50.666;9.150;2023-11-19T09:40:16;9.30;99.90
41694;DHT22;27377;50.666;9.150;2023-11-19T09:47:31;9.30;99.90
41694;DHT22;27377;50.666;9.150;2023-11-19T09:52:55;9.30;99.90
41694;DHT22;27377;50.666;9.150;2023-11-19T09:55:24;9.30;99.90
41694;DHT22;27377;50.666;9.150;2023-11-19T09:57:50;9.40;99.90
41694;DHT22;27377;50.666;9.150;2023-11-19T10:00:20;9.40;99.90
41694;DHT22;27377;50.666;9.150;2023-11-19T10:02:47;9.50;99.90
41694;DHT22;27377;50.666;9.150;2023-11-19T10:05:14;9.50;99.90
41694;DHT22;27377;50.666;9.150;2023-11-19T10:07:41;9.50;99.90
41694;DHT22;27377;50.666;9.150;2023-11-19T10:10:08;9.60;99.90
41694;DHT22;27377;50.666;9.150;2023-11-19T10:12:36;9.60;99.90
41694;DHT22;27377;50.666;9.150;2023-11-19T10:15:02;9.70;99.90
41694;DHT22;27377;50.666;9.150;2023-11-19T10:17:33;9.70;99.90
41694;DHT22;27377;50.666;9.150;2023-11-19T10:20:00;9.70;99.90
41694;DHT22;27377;50.666;9.150;2023-11-19T11:10:01;9.80;99.90
41694;DHT22;27377;50.666;9.150;2023-11-19T11:56:08;10.00;99.90
41694;DHT22;27377;50.666;9.150;2023-11-19T11:58:36;10.00;99.90
41694;DHT22;27377;50.666;9.150;2023-11-19T12:01:10;10.00;99.90
41694;DHT22;27377;50.666;9.150;2023-11-19T12:06:26;10.10;99.90
41694;DHT22;27377;50.666;9.150;2023-11-19T12:08:52;10.10;99.90
41694;DHT22;27377;50.666;9.150;2023-11-19T12:11:24;10.10;99.90
41694;DHT22;27377;50.666;9.150;2023-11-19T12:24:54;10.10;99.90
41694;DHT22;27377;50.666;9.150;2023-11-19T12:42:40;10.20;99.90
41694;DHT22;27377;50.666;9.150;2023-11-19T12:45:36;10.20;99.90
41694;DHT22;27377;50.666;9.150;2023-11-19T12:48:17;10.20;99.90
41694;DHT22;27377;50.666;9.150;2023-11-19T12:50:59;10.20;99.90
41694;DHT22;27377;50.666;9.150;2023-11-19T12:53:48;10.20;99.90
41694;DHT22;27377;50.666;9.150;2023-11-19T12:56:29;10.20;99.90
41694;DHT22;27377;50.666;9.150;2023-11-19T12:59:20;10.20;99.90
41694;DHT22;27377;50.666;9.150;2023-11-19T13:04:31;10.30;99.90
41694;DHT22;27377;50.666;9.150;2023-11-19T13:07:01;10.30;99.90
41694;DHT22;27377;50.666;9.150;2023-11-19T13:09:34;10.30;99.90
41694;DHT22;27377;50.666;9.150;2023-11-19T13:12:15;10.30;99.90
41694;DHT22;27377;50.666;9.150;2023-11-19T13:22:29;10.30;99.90
41694;DHT22;27377;50.666;9.150;2023-11-19T13:25:15;10.30;99.90
41694;DHT22;27377;50.666;9.150;2023-11-19T13:27:46;10.30;99.90
41694;DHT22;27377;50.666;9.150;2023-11-19T13:33:10;10.30;99.90
41694;DHT22;27377;50.666;9.150;2023-11-19T13:35:46;10.30;99.90
41694;DHT22;27377;50.666;9.150;2023-11-19T13:56:37;10.30;99.90
41694;DHT22;27377;50.666;9.150;2023-11-19T14:03:11;10.30;99.90
41694;DHT22;27377;50.666;9.150;2023-11-19T14:05:41;10.30;99.90
41694;DHT22;27377;50.666;9.150;2023-11-19T14:08:09;10.20;99.90
41694;DHT22;27377;50.666;9.150;2023-11-19T14:10:39;10.20;99.90
41694;DHT22;27377;50.666;9.150;2023-11-19T14:13:09;10.20;99.90
41694;DHT22;27377;50.666;9.150;2023-11-19T14:15:37;10.20;99.90
41694;DHT22;27377;50.666;9.150;2023-11-19T14:18:03;10.10;99.90
41694;DHT22;27377;50.666;9.150;2023-11-19T14:20:35;10.10;99.90
41694;DHT22;27377;50.666;9.150;2023-11-19T14:23:03;10.10;99.90
41694;DHT22;27377;50.666;9.150;2023-11-19T14:25:31;10.10;99.90
41694;DHT22;27377;50.666;9.150;2023-11-19T14:28:01;10.10;99.90
41694;DHT22;27377;50.666;9.150;2023-11-19T14:30:27;10.00;99.90
41694;DHT22;27377;50.666;9.150;2023-11-19T14:32:55;10.00;99.90
41694;DHT22;27377;50.666;9.150;2023-11-19T14:35:22;10.00;99.90
41694;DHT22;27377;50.666;9.150;2023-11-19T14:37:56;10.00;99.90
41694;DHT22;27377;50.666;9.150;2023-11-19T14:40:23;9.90;99.90
41694;DHT22;27377;50.666;9.150;2023-11-19T14:42:49;9.90;99.90
41694;DHT22;27377;50.666;9.150;2023-11-19T14:45:15;9.90;99.90
41694;DHT22;27377;50.666;9.150;2023-11-19T14:47:43;9.90;99.90
41694;DHT22;27377;50.666;9.150;2023-11-19T14:50:10;9.90;99.90
41694;DHT22;27377;50.666;9.150;2023-11-19T14:52:36;9.80;99.90
41694;DHT22;27377;50.666;9.150;2023-11-19T14:55:07;9.90;99.90
41694;DHT22;27377;50.666;9.150;2023-11-19T14:57:36;9.90;99.90
41694;DHT22;27377;50.666;9.150;2023-11-19T15:00:07;9.80;99.90
41694;DHT22;27377;50.666;9.150;2023-11-19T15:02:42;9.80;99.90
41694;DHT22;27377;50.666;9.150;2023-11-19T15:05:11;9.80;99.90
41694;DHT22;27377;50.666;9.150;2023-11-19T15:07:40;9.80;99.90
41694;DHT22;27377;50.666;9.150;2023-11-19T15:10:11;9.80;99.90
41694;DHT22;27377;50.666;9.150;2023-11-19T15:12:41;9.80;99.90
41694;DHT22;27377;50.666;9.150;2023-11-19T15:15:12;9.80;99.90
41694;DHT22;27377;50.666;9.150;2023-11-19T15:17:41;9.80;99.90
41694;DHT22;27377;50.666;9.150;2023-11-19T15:20:13;9.80;99.90
41694;DHT22;27377;50.666;9.150;2023-11-19T15:22:44;9.70;99.90
41694;DHT22;27377;50.666;9.150;2023-11-19T15:25:13;9.70;99.90
41694;DHT22;27377;50.666;9.150;2023-11-19T15:27:48;9.70;99.90
41694;DHT22;27377;50.666;9.150;2023-11-19T15:38:17;9.60;99.90
41694;DHT22;27377;50.666;9.150;2023-11-19T15:41:23;9.70;99.90
41694;DHT22;27377;50.666;9.150;2023-11-19T15:44:09;9.60;99.90
41694;DHT22;27377;50.666;9.150;2023-11-19T15:46:45;9.60;99.90
41694;DHT22;27377;50.666;9.150;2023-11-19T15:49:16;9.60;99.90
41694;DHT22;27377;50.666;9.150;2023-11-19T15:52:15;9.60;99.90
41694;DHT22;27377;50.666;9.150;2023-11-19T15:55:20;9.60;99.90
41694;DHT22;27377;50.666;9.150;2023-11-19T15:58:12;9.50;99.90
41694;DHT22;27377;50.666;9.150;2023-11-19T16:09:11;9.30;99.90
41694;DHT22;27377;50.666;9.150;2023-11-19T16:20:07;9.20;99.90
41694;DHT22;27377;50.666;9.150;2023-11-19T16:22:38;9.20;99.90
41694;DHT22;27377;50.666;9.150;2023-11-19T16:25:07;9.20;99.90
41694;DHT22;27377;50.666;9.150;2023-11-19T16:27:35;9.10;99.90
41694;DHT22;27377;50.666;9.150;2023-11-19T16:30:05;9.20;99.90
41694;DHT22;27377;50.666;9.150;2023-11-19T16:32:32;9.20;99.90
41694;DHT22;27377;50.666;9.150;2023-11-19T16:34:59;9.20;99.90
41694;DHT22;27377;50.666;9.150;2023-11-19T16:37:26;9.20;99.90
41694;DHT22;27377;50.666;9.150;2023-11-19T16:39:52;9.20;99.90
41694;DHT22;27377;50.666;9.150;2023-11-19T16:42:19;9.20;99.90
41694;DHT22;27377;50.666;9.150;2023-11-19T16:44:47;9.30;99.90
41694;DHT22;27377;50.666;9.150;2023-11-19T16:47:16;9.30;99.90
41694;DHT22;27377;50.666;9.150;2023-11-19T16:49:42;9.30;99.90
41694;DHT22;27377;50.666;9.150;2023-11-19T16:52:10;9.30;99.90
41694;DHT22;27377;50.666;9.150;2023-11-19T16:54:38;9.30;99.90
41694;DHT22;27377;50.666;9.150;2023-11-19T16:57:04;9.30;99.90
41694;DHT22;27377;50.666;9.150;2023-11-19T16:59:37;9.40;99.90
41694;DHT22;27377;50.666;9.150;2023-11-19T17:02:04;9.40;99.90
41694;DHT22;27377;50.666;9.150;2023-11-19T17:04:32;9.40;99.90
41694;DHT22;27377;50.666;9.150;2023-11-19T17:06:59;9.40;99.90
41694;DHT22;27377;50.666;9.150;2023-11-19T17:09:25;9.50;99.90
41694;DHT22;27377;50.666;9.150;2023-11-19T17:11:51;9.50;99.90
41694;DHT22;27377;50.666;9.150;2023-11-19T17:14:17;9.50;99.90
41694;DHT22;27377;50.666;9.150;2023-11-19T17:16:44;9.50;99.90
41694;DHT22;27377;50.666;9.150;2023-11-19T17:19:15;9.50;99.90
41694;DHT22;27377;50.666;9.150;2023-11-19T17:21:47;9.50;99.90
41694;DHT22;27377;50.666;9.150;2023-11-19T17:24:14;9.50;99.90
41694;DHT22;27377;50.666;9.150;2023-11-19T17:29:27;9.50;99.90
41694;DHT22;27377;50.666;9.150;2023-11-19T17:32:40;9.50;99.90
41694;DHT22;27377;50.666;9.150;2023-11-19T17:35:20;9.50;99.90
41694;DHT22;27377;50.666;9.150;2023-11-19T17:37:59;9.50;99.90
41694;DHT22;27377;50.666;9.150;2023-11-19T17:40:46;9.50;99.90
41694;DHT22;27377;50.666;9.150;2023-11-19T17:43:22;9.50;99.90
41694;DHT22;27377;50.666;9.150;2023-11-19T17:47:14;9.50;99.90
41694;DHT22;27377;50.666;9.150;2023-11-19T17:54:13;9.50;99.90
41694;DHT22;27377;50.666;9.150;2023-11-19T17:57:11;9.50;99.90
41694;DHT22;27377;50.666;9.150;2023-11-19T17:59:54;9.50;99.90
41694;DHT22;27377;50.666;9.150;2023-11-19T18:03:10;9.50;99.90
41694;DHT22;27377;50.666;9.150;2023-11-19T18:09:42;9.50;99.90
41694;DHT22;27377;50.666;9.150;2023-11-19T18:16:45;9.50;99.90
41694;DHT22;27377;50.666;9.150;2023-11-19T18:19:33;9.50;99.90
41694;DHT22;27377;50.666;9.150;2023-11-19T18:22:27;9.50;99.90
41694;DHT22;27377;50.666;9.150;2023-11-19T18:25:40;9.50;99.90
41694;DHT22;27377;50.666;9.150;2023-11-19T18:28:12;9.50;99.90
41694;DHT22;27377;50.666;9.150;2023-11-19T18:31:13;9.50;99.90
41694;DHT22;27377;50.666;9.150;2023-11-19T18:34:03;9.50;99.90
41694;DHT22;27377;50.666;9.150;2023-11-19T18:36:44;9.50;99.90
41694;DHT22;27377;50.666;9.150;2023-11-19T18:39:46;9.50;99.90
41694;DHT22;27377;50.666;9.150;2023-11-19T18:42:42;9.50;99.90
41694;DHT22;27377;50.666;9.150;2023-11-19T18:45:15;9.50;99.90
41694;DHT22;27377;50.666;9.150;2023-11-19T18:48:34;9.50;99.90
41694;DHT22;27377;50.666;9.150;2023-11-19T18:51:39;9.50;99.90
41694;DHT22;27377;50.666;9.150;2023-11-19T18:55:17;9.50;99.90
41694;DHT22;27377;50.666;9.150;2023-11-19T18:57:43;9.50;99.90
41694;DHT22;27377;50.666;9.150;2023-11-19T19:03:12;9.50;99.90
41694;DHT22;27377;50.666;9.150;2023-11-19T19:05:45;9.50;99.90
41694;DHT22;27377;50.666;9.150;2023-11-19T19:08:14;9.50;99.90
41694;DHT22;27377;50.666;9.150;2023-11-19T19:10:41;9.50;99.90
41694;DHT22;27377;50.666;9.150;2023-11-19T19:13:07;9.50;99.90
41694;DHT22;27377;50.666;9.150;2023-11-19T19:15:34;9.50;99.90
41694;DHT22;27377;50.666;9.150;2023-11-19T19:18:00;9.50;99.90
41694;DHT22;27377;50.666;9.150;2023-11-19T19:20:30;9.50;99.90
41694;DHT22;27377;50.666;9.150;2023-11-19T19:23:02;9.50;99.90
41694;DHT22;27377;50.666;9.150;2023-11-19T19:25:29;9.50;99.90
41694;DHT22;27377;50.666;9.150;2023-11-19T19:30:43;9.50;99.90
41694;DHT22;27377;50.666;9.150;2023-11-19T19:33:27;9.60;99.90
41694;DHT22;27377;50.666;9.150;2023-11-19T19:36:23;9.60;99.90
41694;DHT22;27377;50.666;9.150;2023-11-19T19:39:01;9.60;99.90
41694;DHT22;27377;50.666;9.150;2023-11-19T19:41:33;9.60;99.90
41694;DHT22;27377;50.666;9.150;2023-11-19T19:44:00;9.60;99.90
41694;DHT22;27377;50.666;9.150;2023-11-19T19:46:28;9.60;99.90
41694;DHT22;27377;50.666;9.150;2023-11-19T19:49:00;9.60;99.90
41694;DHT22;27377;50.666;9.150;2023-11-19T20:33:53;9.50;99.90
41694;DHT22;27377;50.666;9.150;2023-11-19T20:37:23;9.50;99.90
41694;DHT22;27377;50.666;9.150;2023-11-19T20:44:02;9.50;99.90
41694;DHT22;27377;50.666;9.150;2023-11-19T20:47:22;9.50;99.90
41694;DHT22;27377;50.666;9.150;2023-11-19T21:10:52;9.50;99.90
41694;DHT22;27377;50.666;9.150;2023-11-19T21:13:22;9.50;99.90
41694;DHT22;27377;50.666;9.150;2023-11-19T21:15:50;9.50;99.90
41694;DHT22;27377;50.666;9.150;2023-11-19T21:18:24;9.50;99.90
41694;DHT22;27377;50.666;9.150;2023-11-19T21:20:50;9.50;99.90
41694;DHT22;27377;50.666;9.150;2023-11-19T21:23:20;9.50;99.90
41694;DHT22;27377;50.666;9.150;2023-11-19T21:25:50;9.40;99.90
41694;DHT22;27377;50.666;9.150;2023-11-19T21:28:58;9.40;99.90
41694;DHT22;27377;50.666;9.150;2023-11-19T21:36:46;9.50;99.90
41694;DHT22;27377;50.666;9.150;2023-11-19T21:39:12;9.50;99.90
41694;DHT22;27377;50.666;9.150;2023-11-19T21:41:54;9.50;99.90
41694;DHT22;27377;50.666;9.150;2023-11-19T21:44:29;9.50;99.90
41694;DHT22;27377;50.666;9.150;2023-11-19T21:47:01;9.50;99.90
41694;DHT22;27377;50.666;9.150;2023-11-19T21:49:29;9.50;99.90
41694;DHT22;27377;50.666;9.150;2023-11-19T21:51:55;9.50;99.90
41694;DHT22;27377;50.666;9.150;2023-11-19T22:07:39;9.50;99.90
41694;DHT22;27377;50.666;9.150;2023-11-19T22:10:14;9.50;99.90
41694;DHT22;27377;50.666;9.150;2023-11-19T22:40:40;9.50;99.90
41694;DHT22;27377;50.666;9.150;2023-11-19T22:43:16;9.60;99.90
41694;DHT22;27377;50.666;9.150;2023-11-19T22:45:58;9.60;99.90
41694;DHT22;27377;50.666;9.150;2023-11-19T22:48:28;9.50;99.90
41694;DHT22;27377;50.666;9.150;2023-11-19T22:51:13;9.60;99.90
41694;DHT22;27377;50.666;9.150;2023-11-19T22:53:48;9.60;99.90
41694;DHT22;27377;50.666;9.150;2023-11-19T22:59:18;9.60;99.90
41694;DHT22;27377;50.666;9.150;2023-11-19T23:01:48;9.50;99.90
41694;DHT22;27377;50.666;9.150;2023-11-19T23:04:16;9.50;99.90
41694;DHT22;27377;50.666;9.150;2023-11-19T23:07:13;9.60;99.90
41694;DHT22;27377;50.666;9.150;2023-11-19T23:09:42;9.50;99.90
41694;DHT22;27377;50.666;9.150;2023-11-19T23:12:10;9.50;99.90
41694;DHT22;27377;50.666;9.150;2023-11-19T23:14:38;9.50;99.90
41694;DHT22;27377;50.666;9.150;2023-11-19T23:17:05;9.50;99.90
41694;DHT22;27377;50.666;9.150;2023-11-19T23:19:35;9.50;99.90
41694;DHT22;27377;50.666;9.150;2023-11-19T23:22:02;9.60;99.90
41694;DHT22;27377;50.666;9.150;2023-11-19T23:24:29;9.60;99.90
41694;DHT22;27377;50.666;9.150;2023-11-19T23:26:59;9.60;99.90
41694;DHT22;27377;50.666;9.150;2023-11-19T23:29:33;9.60;99.90
41694;DHT22;27377;50.666;9.150;2023-11-19T23:32:03;9.60;99.90
41694;DHT22;27377;50.666;9.150;2023-11-19T23:34:30;9.60;99.90
41694;DHT22;27377;50.666;9.150;2023-11-19T23:37:00;9.60;99.90
41694;DHT22;27377;50.666;9.150;2023-11-19T23:39:27;9.60;99.90
41694;DHT22;27377;50.666;9.150;2023-11-19T23:41:56;9.60;99.90
41694;DHT22;27377;50.666;9.150;2023-11-19T23:44:25;9.60;99.90
41694;DHT22;27377;50.666;9.150;2023-11-19T23:46:53;9.60;99.90
41694;DHT22;27377;50.666;9.150;2023-11-19T23:49:19;9.60;99.90
41694;DHT22;27377;50.666;9.150;2023-11-19T23:51:46;9.60;99.90
41694;DHT22;27377;50.666;9.150;2023-11-19T23:54:12;9.70;99.90
41694;DHT22;27377;50.666;9.150;2023-11-19T23:56:39;9.70;99.90
41694;DHT22;27377;50.666;9.150;2023-11-19T23:59:06;9.70;99.90
